This is the latest recevied weather packets stored in our database for station/object S55YIZ-7. If no packets are shown the sender has not sent any weather packets the latest 10 day(s).
| Time | Temp. | Humidity | Pressure | Rain* | Wind** | Luminosity | Snow |
|---|---|---|---|---|---|---|---|
| 1777676065 | 15.56° C | 49% | 1027.1 hPa | - | - | - | - |
| 1777675165 | 16.11° C | 46% | 1027 hPa | - | - | - | - |
| 1777674265 | 16.11° C | 45% | 1027.1 hPa | - | - | - | - |
| 1777673364 | 15.56° C | 50% | 1027 hPa | - | - | - | - |
| 1777672464 | 15° C | 50% | 1027 hPa | - | - | - | - |
| 1777671563 | 15.56° C | 50% | 1027 hPa | - | - | - | - |
| 1777670736 | 15.56° C | 51% | 1026.9 hPa | - | - | - | - |
| 1777670663 | 15.56° C | 51% | 1026.9 hPa | - | - | - | - |
| 1777669763 | 15° C | 51% | 1026.9 hPa | - | - | - | - |
| 1777668862 | 15° C | 52% | 1026.8 hPa | - | - | - | - |
| 1777667962 | 15° C | 51% | 1026.8 hPa | - | - | - | - |
| 1777667062 | 15° C | 51% | 1026.7 hPa | - | - | - | - |
| 1777666161 | 15° C | 50% | 1026.7 hPa | - | - | - | - |
| 1777665261 | 15° C | 51% | 1026.5 hPa | - | - | - | - |
| 1777664361 | 13.89° C | 62% | 1026.4 hPa | - | - | - | - |
| 1777663461 | 13.89° C | 64% | 1026.3 hPa | - | - | - | - |
| 1777662561 | 14.44° C | 63% | 1026.1 hPa | - | - | - | - |
| 1777661660 | 13.89° C | 70% | 1026.1 hPa | - | - | - | - |
| 1777660760 | 14.44° C | 68% | 1025.8 hPa | - | - | - | - |
| 1777659860 | 14.44° C | 69% | 1025.7 hPa | - | - | - | - |
| 1777658959 | 15° C | 65% | 1025.5 hPa | - | - | - | - |
| 1777658059 | 15° C | 69% | 1025.2 hPa | - | - | - | - |
| 1777657159 | 16.11° C | 60% | 1025.2 hPa | - | - | - | - |
| 1777656270 | 17.22° C | 52% | 1025.1 hPa | - | - | - | - |
| 1777655370 | 17.22° C | 48% | 1025 hPa | - | - | - | - |
* Rain since midnight (hover to see other rain measurements)
** Current wind speed in m/s (hover to see current wind gust speed)